Terminal Aerodrome Forecast
Issued by NWS

Home | Current Version | Previous Version | Text Only | Print | Product List | Glossary On
Versions: 1 2 3 4 5 6 7 8 9 10 11 12 13 14 15 16 17 18 19 20 21 22 23 24 25 26 27 28 29 30 31
641
FTUS43 KDLH 150700 AAA
TAFHYR
TAF AMD
KHYR 150700Z 1507/1606 VRB03KT P6SM FEW023 BKN029 OVC050
     FM151000 30006KT 6SM -SN BKN022
     FM151300 29004KT 6SM -SN OVC012
     FM151800 28006KT P6SM BKN045
     FM160300 VRB02KT 5SM -SN BKN025=

USA.gov is the U.S. government's official web portal to all federal, state and local government web resources and services.